< < Back
Terminal Aerodrome Forecast


Current Version              Previous Versions:   1  2  3  4  5  6  7  8  9  

Terminal Aerodrome Forecast

339
FTUS44 KOHX 270300 AAE
TAFCSV
TAF AMD
KCSV 270301Z 2703/2724 29003KT 5SM -SHSN BR SCT012 OVC030
      TEMPO 2703/2705 4SM -SHSN BR BKN012
     FM270500 VRB03KT 4SM -SHSN BR OVC005
     FM270700 VRB02KT 3SM -SHSN BR OVC003
     FM271000 00000KT 2SM -SHSN BR OVC002
     FM271500 35007KT 5SM -SHSN BR OVC007
     FM271900 34009KT P6SM OVC015=



Latest METAR

563
SAUS70 KWBC 270500 RRB
MTRCSV
METAR KCSV 270453Z AUTO 28004KT 8SM FEW007 BKN019 OVC024 M02/M03 A2990
RMK AO2 SLP140 T10171033


USA.gov is the U.S. government's official web portal to all federal, state and local government web resources and services.